CheckWX is a tool to help pilots better visualize weather data.  It is not intended as a substitute for an official pre-flight weather briefing.

14:14:54 UTC

KDUJ METAR
Dubois Regional Airport
Dubois, Pennsylvania, USA
Current

22 mins ago

KDUJ 221353Z AUTO 32003KT 10SM OVC018 09/04 A3022 RMK AO2 SLP239 T00940044 $
Observed
Apr-22 @ 13:53 UTC
Wind
  • 320° at 3 KTS
Visibility
10 SM
Flight Rules
MVFR
Cloud Levels
  • Overcast at 1,800' AGL
Temperature
C / 48°F
Dewpoint
C / 39°F
Humidity
71%
Altimeter
30.22" Hg
Pressure
1023.42 hPa
Previous

1 hour ago

KDUJ 221304Z AUTO 33006KT 10SM BKN016 09/04 A3022 RMK AO2 T00890044 $
Observed
Apr-22 @ 13:04 UTC
Wind
  • 330° at 6 KTS
Visibility
10 SM
Flight Rules
MVFR
Cloud Levels
  • Broken at 1,600' AGL
Temperature
C / 48°F
Dewpoint
C / 39°F
Humidity
71%
Altimeter
30.22" Hg
Pressure
1023.42 hPa
Previous

1 hour ago

KDUJ 221253Z AUTO 32005KT 10SM SCT015 09/06 A3022 RMK AO2 SLP237 T00940056 $
Observed
Apr-22 @ 12:53 UTC
Wind
  • 320° at 5 KTS
Visibility
10 SM
Flight Rules
VFR
Cloud Levels
  • Scattered at 1,500' AGL
Temperature
C / 48°F
Dewpoint
C / 43°F
Humidity
82%
Altimeter
30.22" Hg
Pressure
1023.42 hPa